createdAt,value
2023-03-04T00:00:35.748Z,102193.88
2023-03-04T00:03:03.609Z,102183.34
2023-03-04T00:05:31.338Z,102186.00
2023-03-04T00:07:59.022Z,102191.28
2023-03-04T00:10:26.777Z,102190.41
2023-03-04T00:12:54.596Z,102186.88
2023-03-04T00:15:22.306Z,102188.66
2023-03-04T00:17:51.738Z,102188.66
2023-03-04T00:20:19.581Z,102188.66
2023-03-04T00:22:48.091Z,102190.41
2023-03-04T00:25:15.983Z,102193.03
2023-03-04T00:27:43.728Z,102194.81
2023-03-04T00:30:12.396Z,102193.94
2023-03-04T00:32:40.933Z,102188.66
2023-03-04T00:35:10.623Z,102193.06
2023-03-04T00:37:38.421Z,102196.59
2023-03-04T00:40:07.508Z,102203.63
2023-03-04T00:42:35.913Z,102203.59
2023-03-04T00:45:04.194Z,102208.03
2023-03-04T00:47:31.987Z,102203.63
2023-03-04T00:49:59.750Z,102208.03
2023-03-04T00:52:29.004Z,102208.03
2023-03-04T00:54:56.801Z,102214.22
2023-03-04T00:57:24.569Z,102214.19
2023-03-04T00:59:52.420Z,102221.25
2023-03-04T01:02:20.169Z,102214.22
2023-03-04T01:04:47.898Z,102209.78
2023-03-04T01:07:15.661Z,102208.91
2023-03-04T01:09:44.808Z,102204.50
2023-03-04T01:12:13.181Z,102214.22
2023-03-04T01:14:40.936Z,102215.09
2023-03-04T01:17:08.694Z,102208.94
2023-03-04T01:19:36.508Z,102206.28
2023-03-04T01:22:04.536Z,102206.28
2023-03-04T01:24:32.279Z,102217.72
2023-03-04T01:27:01.808Z,102208.91
2023-03-04T01:29:30.320Z,102208.03
2023-03-04T01:31:58.184Z,102219.47
2023-03-04T01:34:26.021Z,102216.84
2023-03-04T01:36:53.836Z,102208.00
2023-03-04T01:39:21.685Z,102209.78
2023-03-04T01:41:49.555Z,102214.16
2023-03-04T01:44:18.770Z,102211.56
2023-03-04T01:46:50.739Z,102204.50
2023-03-04T01:49:19.131Z,102205.41
2023-03-04T01:51:50.675Z,102206.25
2023-03-04T01:54:18.872Z,102198.34
2023-03-04T01:56:48.506Z,102203.63
2023-03-04T01:59:20.057Z,102198.34
2023-03-04T02:01:50.427Z,102196.59
2023-03-04T02:04:21.675Z,102196.56
2023-03-04T02:06:51.701Z,102192.16
2023-03-04T02:09:20.668Z,102194.84
2023-03-04T02:11:49.195Z,102197.47
2023-03-04T02:14:19.711Z,102189.53
2023-03-04T02:16:48.177Z,102196.59
2023-03-04T02:19:26.679Z,102195.69
2023-03-04T02:21:54.606Z,102192.16
2023-03-04T02:24:28.256Z,102190.44
2023-03-04T02:26:57.342Z,102187.78
2023-03-04T02:29:25.157Z,102193.06
2023-03-04T02:31:54.585Z,102190.41
2023-03-04T02:34:24.766Z,102187.75
2023-03-04T02:36:54.751Z,102192.19
2023-03-04T02:39:26.340Z,102183.34
2023-03-04T02:41:56.128Z,102184.25
2023-03-04T02:44:27.143Z,102196.56
2023-03-04T02:46:56.074Z,102180.72
2023-03-04T02:49:26.489Z,102189.53
2023-03-04T02:51:59.671Z,102178.09
2023-03-04T02:54:27.462Z,102181.63
2023-03-04T02:56:59.274Z,102186.00
2023-03-04T02:59:28.489Z,102179.84
2023-03-04T03:01:56.279Z,102188.66
2023-03-04T03:04:25.622Z,102186.00
2023-03-04T03:06:53.860Z,102190.41
2023-03-04T03:09:22.073Z,102182.50
2023-03-04T03:11:49.800Z,102183.31
2023-03-04T03:14:17.755Z,102187.75
2023-03-04T03:16:46.900Z,102191.28
2023-03-04T03:19:14.599Z,102185.09
2023-03-04T03:21:42.456Z,102183.38
2023-03-04T03:24:10.203Z,102180.72
2023-03-04T03:26:39.909Z,102186.03
2023-03-04T03:29:07.729Z,102187.78
2023-03-04T03:31:35.544Z,102186.03
2023-03-04T03:34:04.846Z,102171.94
2023-03-04T03:36:32.657Z,102177.19
2023-03-04T03:39:00.461Z,102168.38
2023-03-04T03:41:28.171Z,102171.03
2023-03-04T03:43:55.887Z,102171.94
2023-03-04T03:46:23.664Z,102173.69
2023-03-04T03:48:51.453Z,102181.63
2023-03-04T03:51:20.558Z,102176.31
2023-03-04T03:53:48.313Z,102178.97
2023-03-04T03:56:16.080Z,102177.16
2023-03-04T03:58:43.855Z,102172.78
2023-03-04T04:01:11.669Z,102173.66
2023-03-04T04:03:39.837Z,102173.66
2023-03-04T04:06:08.155Z,102170.09
2023-03-04T04:08:37.475Z,102165.66
2023-03-04T04:11:05.647Z,102167.38
2023-03-04T04:13:33.324Z,102163.06
2023-03-04T04:16:01.119Z,102156.00
2023-03-04T04:18:28.887Z,102166.63
2023-03-04T04:20:56.589Z,102158.66
2023-03-04T04:23:24.367Z,102166.59
2023-03-04T04:25:55.974Z,102178.88
2023-03-04T04:28:23.783Z,102177.13
2023-03-04T04:30:52.006Z,102171.88
2023-03-04T04:33:19.784Z,102176.25
2023-03-04T04:35:47.573Z,102179.81
2023-03-04T04:38:15.287Z,102178.94
2023-03-04T04:40:43.461Z,102184.19
2023-03-04T04:43:12.581Z,102175.41
2023-03-04T04:45:40.355Z,102181.53
2023-03-04T04:48:08.967Z,102185.00
2023-03-04T04:50:37.028Z,102182.25
2023-03-04T04:53:04.820Z,102182.31
2023-03-04T04:55:33.332Z,102187.59
2023-03-04T04:58:01.029Z,102190.97
2023-03-04T05:00:30.136Z,102194.56
2023-03-04T05:02:57.986Z,102192.63
2023-03-04T05:05:25.752Z,102196.22
2023-03-04T05:07:53.508Z,102192.50
2023-03-04T05:10:21.474Z,102199.75
2023-03-04T05:12:49.831Z,102198.00
2023-03-04T05:15:17.720Z,102200.72
2023-03-04T05:17:46.785Z,102200.63
2023-03-04T05:20:14.869Z,102211.84
2023-03-04T05:22:42.668Z,102208.47
2023-03-04T05:25:11.214Z,102209.44
2023-03-04T05:27:38.895Z,102204.22
2023-03-04T05:30:07.768Z,102219.13
2023-03-04T05:32:35.541Z,102209.50
2023-03-04T05:35:05.183Z,102214.72
2023-03-04T05:37:32.958Z,102208.59
2023-03-04T05:40:00.751Z,102219.16
2023-03-04T05:42:28.578Z,102218.28
2023-03-04T05:44:56.350Z,102213.81
2023-03-04T05:47:24.182Z,102219.91
2023-03-04T05:49:51.881Z,102222.56
2023-03-04T05:52:21.048Z,102219.06
2023-03-04T05:54:48.817Z,102219.66
2023-03-04T05:57:16.557Z,102221.28
2023-03-04T05:59:44.284Z,102225.59
2023-03-04T06:02:12.023Z,102228.09
2023-03-04T06:04:39.772Z,102219.38
2023-03-04T06:07:07.536Z,102225.47
2023-03-04T06:09:36.662Z,102233.25
2023-03-04T06:12:04.384Z,102234.09
2023-03-04T06:14:32.178Z,102235.06
2023-03-04T06:16:59.951Z,102244.69
2023-03-04T06:19:27.685Z,102246.59
2023-03-04T06:21:55.457Z,102251.16
2023-03-04T06:24:23.380Z,102252.00
2023-03-04T06:26:52.506Z,102259.03
2023-03-04T06:29:20.202Z,102263.50
2023-03-04T06:31:47.942Z,102264.22
2023-03-04T06:34:16.099Z,102264.13
2023-03-04T06:36:43.842Z,102254.47
2023-03-04T06:39:11.706Z,102268.16
2023-03-04T06:41:39.965Z,102262.38
2023-03-04T06:44:09.275Z,102262.16
2023-03-04T06:46:37.321Z,102270.34
2023-03-04T06:49:05.326Z,102272.81
2023-03-04T06:51:33.089Z,102270.19
2023-03-04T06:54:00.800Z,102274.81
2023-03-04T06:56:28.709Z,102280.06
2023-03-04T06:58:56.471Z,102290.53
2023-03-04T07:01:28.675Z,102284.50
2023-03-04T07:03:58.086Z,102293.22
2023-03-04T07:06:29.060Z,102293.56
2023-03-04T07:08:57.261Z,102294.50
2023-03-04T07:11:25.604Z,102296.25
2023-03-04T07:13:54.019Z,102290.22
2023-03-04T07:16:23.711Z,102296.22
2023-03-04T07:18:52.901Z,102292.75
2023-03-04T07:21:20.635Z,102296.38
2023-03-04T07:23:48.464Z,102305.00
2023-03-04T07:26:16.289Z,102302.50
2023-03-04T07:28:44.364Z,102308.72
2023-03-04T07:31:14.281Z,102303.56
2023-03-04T07:33:42.580Z,102304.34
2023-03-04T07:36:13.111Z,102307.22
2023-03-04T07:38:40.840Z,102294.84
2023-03-04T07:41:08.616Z,102303.59
2023-03-04T07:43:36.375Z,102308.00
2023-03-04T07:46:04.255Z,102304.53
2023-03-04T07:48:32.076Z,102301.06
2023-03-04T07:51:07.483Z,102301.13
2023-03-04T07:53:38.050Z,102305.59
2023-03-04T07:56:07.571Z,102306.53
2023-03-04T07:58:35.337Z,102304.84
2023-03-04T08:01:03.126Z,102308.38
2023-03-04T08:03:30.920Z,102312.81
2023-03-04T08:06:00.370Z,102317.19
2023-03-04T08:08:28.185Z,102318.06
2023-03-04T08:10:57.875Z,102323.22
2023-03-04T08:13:26.189Z,102318.03
2023-03-04T08:15:56.738Z,102319.75
2023-03-04T08:18:24.641Z,102327.69
2023-03-04T08:20:52.565Z,102333.00
2023-03-04T08:23:21.639Z,102340.22
2023-03-04T08:25:49.770Z,102334.00
2023-03-04T08:28:19.236Z,102338.38
2023-03-04T08:30:53.185Z,102338.38
2023-03-04T08:33:21.039Z,102341.09
2023-03-04T08:35:49.286Z,102339.34
2023-03-04T08:38:17.095Z,102343.78
2023-03-04T08:40:44.817Z,102348.16
2023-03-04T08:43:12.573Z,102339.34
2023-03-04T08:45:41.828Z,102344.63
2023-03-04T08:48:09.646Z,102336.72
2023-03-04T08:50:38.320Z,102343.75
2023-03-04T08:53:06.641Z,102341.09
2023-03-04T08:55:34.785Z,102353.47
2023-03-04T08:58:02.882Z,102344.63
2023-03-04T09:00:30.937Z,102346.41
2023-03-04T09:03:01.615Z,102354.34
2023-03-04T09:05:30.262Z,102346.41
2023-03-04T09:07:57.995Z,102344.63
2023-03-04T09:10:26.149Z,102344.56
2023-03-04T09:12:53.823Z,102341.97
2023-03-04T09:15:21.632Z,102341.09
2023-03-04T09:17:49.396Z,102339.31
2023-03-04T09:20:18.442Z,102342.78
2023-03-04T09:22:46.189Z,102341.84
2023-03-04T09:25:16.047Z,102344.50
2023-03-04T09:27:43.790Z,102342.56
2023-03-04T09:30:12.991Z,102338.06
2023-03-04T09:32:41.394Z,102334.63
2023-03-04T09:35:10.158Z,102333.81
2023-03-04T09:37:41.436Z,102334.50
2023-03-04T09:40:17.380Z,102324.81
2023-03-04T09:42:48.155Z,102322.00
2023-03-04T09:45:19.529Z,102320.97
2023-03-04T09:47:49.605Z,102328.78
2023-03-04T09:50:18.963Z,102331.53
2023-03-04T09:53:03.098Z,102323.44
2023-03-04T09:55:36.151Z,102327.88
2023-03-04T09:58:11.354Z,102320.97
2023-03-04T10:00:43.097Z,102320.53
2023-03-04T10:03:19.494Z,102325.72
2023-03-04T10:05:55.758Z,102324.91
2023-03-04T10:08:39.367Z,102323.59
2023-03-04T10:11:14.525Z,102320.06
2023-03-04T10:13:51.732Z,102325.22
2023-03-04T10:16:23.988Z,102326.88
2023-03-04T10:18:56.845Z,102317.59
2023-03-04T10:21:31.006Z,102317.19
2023-03-04T10:24:02.768Z,102315.47
2023-03-04T10:26:33.467Z,102312.47
2023-03-04T10:29:03.033Z,102320.28
2023-03-04T10:31:36.647Z,102321.88
2023-03-04T10:34:05.244Z,102330.03
2023-03-04T10:36:47.452Z,102317.31
2023-03-04T10:39:20.877Z,102317.69
2023-03-04T10:41:55.240Z,102312.09
2023-03-04T10:44:24.412Z,102314.41
2023-03-04T10:46:55.182Z,102311.84
2023-03-04T10:49:24.817Z,102311.03
2023-03-04T10:51:56.513Z,102305.78
2023-03-04T10:54:29.855Z,102311.72
2023-03-04T10:57:00.078Z,102309.97
2023-03-04T10:59:45.996Z,102309.34
2023-03-04T11:02:33.026Z,102296.00
2023-03-04T11:05:17.496Z,102300.75
2023-03-04T11:07:55.064Z,102290.28
2023-03-04T11:10:29.869Z,102299.97
2023-03-04T11:13:01.935Z,102292.56
2023-03-04T11:15:50.776Z,102286.28
2023-03-04T11:18:23.456Z,102290.81
2023-03-04T11:20:52.753Z,102284.47
2023-03-04T11:23:29.455Z,102282.91
2023-03-04T11:26:02.858Z,102277.81
2023-03-04T11:28:45.684Z,102270.53
2023-03-04T11:31:18.476Z,102281.59
2023-03-04T11:33:54.249Z,102275.13
2023-03-04T11:36:33.876Z,102268.31
2023-03-04T11:39:04.206Z,102271.56
2023-03-04T11:41:35.725Z,102266.72
2023-03-04T11:44:07.131Z,102266.09
2023-03-04T11:47:05.079Z,102261.47
2023-03-04T11:49:52.602Z,102255.69
2023-03-04T11:52:29.577Z,102255.22
2023-03-04T11:55:13.861Z,102267.38
2023-03-04T11:57:51.853Z,102258.59
2023-03-04T12:00:36.866Z,102253.88
2023-03-04T12:03:33.573Z,102248.53
2023-03-04T12:06:13.264Z,102238.09
2023-03-04T12:08:55.019Z,102237.66
2023-03-04T12:11:33.387Z,102230.63
2023-03-04T12:14:20.316Z,102234.88
2023-03-04T12:17:17.120Z,102229.75
2023-03-04T12:20:01.174Z,102222.88
2023-03-04T12:22:41.881Z,102214.03
2023-03-04T12:25:37.637Z,102221.50
2023-03-04T12:28:23.447Z,102219.84
2023-03-04T12:31:06.339Z,102211.50
2023-03-04T12:33:45.962Z,102216.69
2023-03-04T12:36:25.616Z,102216.34
2023-03-04T12:39:01.201Z,102209.06
2023-03-04T12:41:41.042Z,102219.25
2023-03-04T12:44:18.198Z,102214.06
2023-03-04T12:46:56.951Z,102209.63
2023-03-04T12:49:38.133Z,102206.16
2023-03-04T12:52:16.212Z,102196.28
2023-03-04T12:54:47.705Z,102195.91
2023-03-04T12:57:18.699Z,102203.03
2023-03-04T12:59:53.216Z,102188.94
2023-03-04T13:02:40.692Z,102196.56
2023-03-04T13:05:20.742Z,102180.06
2023-03-04T13:07:58.508Z,102177.38
2023-03-04T13:10:27.727Z,102175.66
2023-03-04T13:12:58.146Z,102176.28
2023-03-04T13:15:32.634Z,102178.09
2023-03-04T13:18:02.497Z,102180.03
2023-03-04T13:20:39.316Z,102168.75
2023-03-04T13:23:27.041Z,102173.78
2023-03-04T13:26:21.465Z,102171.44
2023-03-04T13:28:55.086Z,102164.69
2023-03-04T13:31:27.047Z,102168.03
2023-03-04T13:34:00.558Z,102164.69
2023-03-04T13:36:59.126Z,102154.31
2023-03-04T13:39:30.745Z,102149.78
2023-03-04T13:42:00.824Z,102161.72
2023-03-04T13:44:59.990Z,102157.50
2023-03-04T13:47:48.526Z,102146.03
2023-03-04T13:50:36.510Z,102146.63
2023-03-04T13:53:32.451Z,102148.25
2023-03-04T13:56:09.826Z,102131.16
2023-03-04T13:58:40.111Z,102138.91
2023-03-04T14:01:25.777Z,102134.66
2023-03-04T14:03:53.654Z,102130.06
2023-03-04T14:06:24.964Z,102132.16
2023-03-04T14:08:54.016Z,102125.69
2023-03-04T14:11:29.572Z,102124.22
2023-03-04T14:14:00.765Z,102116.38
2023-03-04T14:16:30.670Z,102115.25
2023-03-04T14:19:00.767Z,102114.75
2023-03-04T14:21:29.447Z,102109.22
2023-03-04T14:24:06.113Z,102108.19
2023-03-04T14:26:34.710Z,102106.63
2023-03-04T14:29:04.368Z,102095.63
2023-03-04T14:31:35.616Z,102092.97
2023-03-04T14:34:04.245Z,102098.06
2023-03-04T14:36:34.550Z,102095.59
2023-03-04T14:39:05.741Z,102087.91
2023-03-04T14:41:36.442Z,102091.03
2023-03-04T14:44:18.878Z,102087.63
2023-03-04T14:47:05.939Z,102093.94
2023-03-04T14:49:36.909Z,102092.97
2023-03-04T14:52:04.751Z,102079.09
2023-03-04T14:54:35.929Z,102091.25
2023-03-04T14:57:23.929Z,102092.84
2023-03-04T14:59:53.746Z,102087.38
2023-03-04T15:02:33.145Z,102078.81
2023-03-04T15:05:16.499Z,102089.66
2023-03-04T15:07:50.784Z,102089.84
2023-03-04T15:10:23.634Z,102088.84
2023-03-04T15:12:55.878Z,102082.25
2023-03-04T15:15:43.515Z,102074.56
2023-03-04T15:18:30.252Z,102081.13
2023-03-04T15:21:00.378Z,102078.75
2023-03-04T15:23:29.108Z,102071.03
2023-03-04T15:25:59.140Z,102074.00
2023-03-04T15:28:28.449Z,102063.22
2023-03-04T15:30:57.644Z,102075.81
2023-03-04T15:33:25.881Z,102066.34
2023-03-04T15:35:57.068Z,102065.25
2023-03-04T15:38:25.265Z,102073.00
2023-03-04T15:40:54.635Z,102059.31
2023-03-04T15:43:23.783Z,102060.56
2023-03-04T15:45:53.440Z,102050.72
2023-03-04T15:48:22.623Z,102056.69
2023-03-04T15:50:55.557Z,102059.69
2023-03-04T15:53:28.785Z,102057.03
2023-03-04T15:55:56.663Z,102060.94
2023-03-04T15:58:24.459Z,102057.22
2023-03-04T16:00:52.332Z,102054.41
2023-03-04T16:03:23.080Z,102053.41
2023-03-04T16:05:52.630Z,102050.94
2023-03-04T16:08:22.175Z,102047.03
2023-03-04T16:10:49.899Z,102047.00
2023-03-04T16:13:19.647Z,102048.19
2023-03-04T16:15:48.026Z,102050.00
2023-03-04T16:18:16.869Z,102044.00
2023-03-04T16:20:48.399Z,102038.63
2023-03-04T16:23:19.987Z,102037.53
2023-03-04T16:25:50.452Z,102035.63
2023-03-04T16:28:18.826Z,102034.16
2023-03-04T16:30:46.989Z,102028.00
2023-03-04T16:33:16.290Z,102028.13
2023-03-04T16:35:46.690Z,102023.69
2023-03-04T16:38:22.227Z,102021.69
2023-03-04T16:40:50.571Z,102012.25
2023-03-04T16:43:18.343Z,102012.16
2023-03-04T16:45:46.123Z,102018.53
2023-03-04T16:48:13.873Z,102016.53
2023-03-04T16:50:42.258Z,102025.53
2023-03-04T16:53:24.803Z,102023.97
2023-03-04T16:55:52.641Z,102033.13
2023-03-04T16:58:20.409Z,102023.28
2023-03-04T17:00:48.198Z,102021.63
2023-03-04T17:03:15.938Z,102024.41
2023-03-04T17:05:44.301Z,102025.00
2023-03-04T17:08:12.056Z,102023.22
2023-03-04T17:10:41.281Z,102023.78
2023-03-04T17:13:09.676Z,102025.94
2023-03-04T17:15:37.615Z,102026.22
2023-03-04T17:18:05.548Z,102025.13
2023-03-04T17:20:33.391Z,102025.47
2023-03-04T17:23:01.134Z,102026.72
2023-03-04T17:25:28.905Z,102031.44
2023-03-04T17:27:58.063Z,102019.28
2023-03-04T17:30:25.835Z,102024.50
2023-03-04T17:32:53.582Z,102026.00
2023-03-04T17:35:22.420Z,102026.09
2023-03-04T17:37:50.655Z,102027.97
2023-03-04T17:40:18.820Z,102040.03
2023-03-04T17:42:46.580Z,102032.88
2023-03-04T17:45:15.792Z,102030.28
2023-03-04T17:47:43.530Z,102034.63
2023-03-04T17:50:12.745Z,102032.28
2023-03-04T17:52:40.536Z,102036.06
2023-03-04T17:55:08.995Z,102046.38
2023-03-04T17:57:37.588Z,102036.22
2023-03-04T18:00:06.557Z,102039.69
2023-03-04T18:02:35.644Z,102037.03
2023-03-04T18:05:06.656Z,102038.91
2023-03-04T18:07:34.468Z,102037.00
2023-03-04T18:10:02.246Z,102041.41
2023-03-04T18:12:30.133Z,102037.88
2023-03-04T18:14:57.933Z,102039.88
2023-03-04T18:17:26.471Z,102035.13
2023-03-04T18:19:56.709Z,102037.28
2023-03-04T18:22:24.526Z,102040.09
2023-03-04T18:24:52.272Z,102037.38
2023-03-04T18:27:20.073Z,102032.75
2023-03-04T18:29:47.816Z,102042.66
2023-03-04T18:32:15.737Z,102047.81
2023-03-04T18:34:43.577Z,102035.22
2023-03-04T18:37:12.692Z,102041.06
2023-03-04T18:39:40.641Z,102038.06
2023-03-04T18:42:08.444Z,102041.53
2023-03-04T18:44:36.252Z,102044.69
2023-03-04T18:47:04.021Z,102050.78
2023-03-04T18:49:31.827Z,102040.28
2023-03-04T18:51:59.622Z,102042.31
2023-03-04T18:54:28.745Z,102040.38
2023-03-04T18:56:59.852Z,102040.34
2023-03-04T18:59:32.557Z,102031.69
2023-03-04T19:02:04.809Z,102028.75
2023-03-04T19:04:32.925Z,102026.69
2023-03-04T19:07:00.699Z,102020.38
2023-03-04T19:09:29.876Z,102026.09
2023-03-04T19:11:57.729Z,102032.19
2023-03-04T19:14:25.639Z,102026.94
2023-03-04T19:16:53.452Z,102020.97
2023-03-04T19:19:21.175Z,102019.88
2023-03-04T19:21:48.872Z,102024.34
2023-03-04T19:24:16.810Z,102024.50
2023-03-04T19:26:45.984Z,102031.31
2023-03-04T19:29:15.125Z,102027.59
2023-03-04T19:31:43.383Z,102026.25
2023-03-04T19:34:11.374Z,102033.88
2023-03-04T19:36:39.622Z,102031.34
2023-03-04T19:39:07.607Z,102031.22
2023-03-04T19:41:35.432Z,102028.56
2023-03-04T19:44:04.568Z,102026.78
2023-03-04T19:46:32.470Z,102024.09
2023-03-04T19:49:02.126Z,102022.00
2023-03-04T19:51:32.157Z,102027.78
2023-03-04T19:53:59.990Z,102034.72
2023-03-04T19:56:27.736Z,102036.53
2023-03-04T19:58:56.273Z,102033.84
2023-03-04T20:01:28.183Z,102034.72
2023-03-04T20:03:56.808Z,102038.53
2023-03-04T20:06:26.807Z,102038.34
2023-03-04T20:08:57.425Z,102038.44
2023-03-04T20:11:25.535Z,102040.16
2023-03-04T20:13:54.057Z,102039.19
2023-03-04T20:16:22.320Z,102044.56
2023-03-04T20:18:51.820Z,102049.78
2023-03-04T20:21:19.947Z,102047.69
2023-03-04T20:23:47.796Z,102044.94
2023-03-04T20:26:15.613Z,102038.72
2023-03-04T20:28:43.385Z,102041.53
2023-03-04T20:31:13.096Z,102036.28
2023-03-04T20:33:40.887Z,102030.13
2023-03-04T20:36:10.245Z,102025.19
2023-03-04T20:38:38.119Z,102027.72
2023-03-04T20:41:06.539Z,102025.34
2023-03-04T20:43:34.419Z,102018.16
2023-03-04T20:46:28.712Z,102020.66
2023-03-04T20:48:57.285Z,102017.50
2023-03-04T20:51:26.484Z,102017.84
2023-03-04T20:53:55.408Z,102024.44
2023-03-04T20:56:24.145Z,102010.28
2023-03-04T20:58:52.011Z,102022.81
2023-03-04T21:01:19.889Z,102016.53
2023-03-04T21:03:48.711Z,102019.13
2023-03-04T21:06:17.044Z,102025.75
2023-03-04T21:08:46.571Z,102022.03
2023-03-04T21:11:15.057Z,102027.44
2023-03-04T21:13:43.177Z,102030.59
2023-03-04T21:16:15.630Z,102025.41
2023-03-04T21:18:45.174Z,102024.41
2023-03-04T21:21:15.571Z,102012.19
2023-03-04T21:23:43.342Z,102015.88
2023-03-04T21:26:12.474Z,102018.34
2023-03-04T21:28:41.544Z,102018.69
2023-03-04T21:31:14.871Z,102020.94
2023-03-04T21:33:42.683Z,102014.81
2023-03-04T21:36:11.192Z,102010.47
2023-03-04T21:38:39.587Z,102019.25
2023-03-04T21:41:07.613Z,102014.66
2023-03-04T21:43:36.690Z,102012.72
2023-03-04T21:46:05.384Z,102014.75
2023-03-04T21:48:33.291Z,102014.44
2023-03-04T21:51:05.479Z,102018.69
2023-03-04T21:53:34.020Z,102013.53
2023-03-04T21:56:02.080Z,102017.16
2023-03-04T21:58:30.287Z,102010.22
2023-03-04T22:00:59.487Z,102006.53
2023-03-04T22:03:27.684Z,102003.88
2023-03-04T22:05:59.107Z,101998.13
2023-03-04T22:08:27.817Z,101998.16
2023-03-04T22:10:55.522Z,102002.50
2023-03-04T22:13:24.029Z,102000.06
2023-03-04T22:15:51.783Z,102001.53
2023-03-04T22:18:20.911Z,102004.13
2023-03-04T22:20:48.680Z,102005.13
2023-03-04T22:23:16.428Z,102005.13
2023-03-04T22:25:44.191Z,101990.84
2023-03-04T22:28:11.953Z,101987.72
2023-03-04T22:30:39.922Z,101989.13
2023-03-04T22:33:07.646Z,101991.69
2023-03-04T22:35:40.693Z,101994.41
2023-03-04T22:38:08.589Z,101997.66
2023-03-04T22:40:36.326Z,101994.38
2023-03-04T22:43:04.036Z,101991.00
2023-03-04T22:45:32.976Z,101992.75
2023-03-04T22:48:00.781Z,101989.91
2023-03-04T22:50:29.041Z,101997.66
2023-03-04T22:52:58.210Z,101997.19
2023-03-04T22:55:25.909Z,101986.94
2023-03-04T22:57:53.606Z,101989.88
2023-03-04T23:00:23.647Z,101980.88
2023-03-04T23:02:51.764Z,101975.16
2023-03-04T23:05:20.814Z,101979.66
2023-03-04T23:07:49.537Z,101982.09
2023-03-04T23:10:22.559Z,101976.53
2023-03-04T23:12:51.456Z,101972.88
2023-03-04T23:15:20.822Z,101974.59
2023-03-04T23:17:48.590Z,101965.91
2023-03-04T23:20:19.949Z,101964.00
2023-03-04T23:22:49.366Z,101960.44
2023-03-04T23:25:18.657Z,101962.31
2023-03-04T23:27:46.448Z,101961.06
2023-03-04T23:30:17.378Z,101961.78
2023-03-04T23:32:45.769Z,101955.63
2023-03-04T23:35:13.605Z,101956.63
2023-03-04T23:37:41.393Z,101955.38
2023-03-04T23:40:10.668Z,101958.09
2023-03-04T23:42:40.812Z,101961.16
2023-03-04T23:45:09.531Z,101954.16
2023-03-04T23:47:37.270Z,101949.56
2023-03-04T23:50:06.935Z,101950.16
2023-03-04T23:52:36.253Z,101952.69
2023-03-04T23:55:04.002Z,101954.38
2023-03-04T23:57:31.736Z,101948.16
